Time;durP1;ratioP1;P1;durP2;ratioP2;P2;SDS_P1;SDS_P2;PMS_P1;PMS_P2;Temp;Humidity;BMP_temperature;BMP_pressure;BME280_temperature;BME280_humidity;BME280_pressure;Samples;Min_cycle;Max_cycle;Signal;HPM_P1;HPM_P2
2021/03/28 00:00:53;;;;;;;28.88;4.10;;;10.40;99.20;;;;;;5046710;28;20433;-73
2021/03/28 00:03:26;;;;;;;33.00;4.83;;;10.40;99.20;;;;;;5025048;28;20454;-73
2021/03/28 00:05:53;;;;;;;30.27;4.28;;;10.40;99.20;;;;;;5042520;28;20414;-71
2021/03/28 00:08:25;;;;;;;30.10;4.50;;;10.40;99.20;;;;;;5038160;28;20482;-74
2021/03/28 00:10:55;;;;;;;27.95;4.32;;;10.40;99.20;;;;;;5044002;28;20440;-74
2021/03/28 00:13:26;;;;;;;29.90;4.68;;;10.40;99.20;;;;;;5039107;28;20434;-74
2021/03/28 00:16:04;;;;;;;29.23;4.32;;;10.40;99.10;;;;;;5026164;28;20433;-73
2021/03/28 00:18:37;;;;;;;31.00;4.78;;;10.40;99.00;;;;;;5041674;28;20433;-74
2021/03/28 00:21:08;;;;;;;28.25;4.35;;;10.40;98.90;;;;;;5043819;28;20432;-73
2021/03/28 00:23:44;;;;;;;30.67;4.40;;;10.40;98.90;;;;;;5023953;28;21004;-73
2021/03/28 00:26:23;;;;;;;29.17;4.80;;;10.40;98.80;;;;;;5044006;28;20927;-73
2021/03/28 00:29:03;;;;;;;31.13;4.88;;;10.40;98.80;;;;;;5041589;28;20992;-72
2021/03/28 00:31:32;;;;;;;31.50;4.50;;;10.40;98.70;;;;;;5043184;28;20508;-75
2021/03/28 00:34:04;;;;;;;27.65;4.30;;;10.40;98.70;;;;;;5028485;28;20449;-71
2021/03/28 00:36:37;;;;;;;29.10;4.70;;;10.40;98.80;;;;;;5049440;28;20435;-75
2021/03/28 00:39:08;;;;;;;30.35;4.65;;;10.30;98.70;;;;;;5049833;28;20429;-74
2021/03/28 00:41:47;;;;;;;26.73;4.90;;;10.40;98.60;;;;;;5048089;28;20433;-77
2021/03/28 00:44:17;;;;;;;29.65;4.63;;;10.40;98.50;;;;;;5050131;28;20433;-74
2021/03/28 00:46:46;;;;;;;28.80;4.43;;;10.40;98.50;;;;;;5030913;28;20468;-74
2021/03/28 00:49:23;;;;;;;30.23;3.80;;;10.30;98.60;;;;;;5048700;28;20459;-74
2021/03/28 00:51:53;;;;;;;26.38;4.05;;;10.30;98.60;;;;;;5046611;28;20770;-74
2021/03/28 00:54:25;;;;;;;26.60;3.75;;;10.30;98.60;;;;;;5049873;28;20421;-76
2021/03/28 00:56:56;;;;;;;28.08;4.15;;;10.30;98.70;;;;;;5047878;28;20436;-73
2021/03/28 00:59:32;;;;;;;30.73;4.35;;;10.30;98.60;;;;;;5048392;28;20452;-73
2021/03/28 01:02:16;;;;;;;31.63;4.40;;;10.30;98.70;;;;;;5029969;28;20433;-73
2021/03/28 01:04:56;;;;;;;33.65;4.65;;;10.30;98.80;;;;;;5048370;28;20502;-74
2021/03/28 01:07:34;;;;;;;26.50;3.90;;;10.20;98.80;;;;;;5048462;28;20436;-74
2021/03/28 01:10:44;;;;;;;29.40;4.07;;;10.20;98.90;;;;;;5042210;28;20443;-72
2021/03/28 01:14:05;;;;;;;27.65;4.20;;;10.20;99.00;;;;;;5046395;28;20425;-74
2021/03/28 01:17:13;;;;;;;27.48;4.00;;;10.20;99.50;;;;;;5046584;28;20429;-73
2021/03/28 01:20:09;;;;;;;28.98;4.65;;;10.10;99.10;;;;;;5047397;28;20829;-72
2021/03/28 01:22:54;;;;;;;25.17;4.07;;;10.20;99.50;;;;;;5044075;28;20538;-76
2021/03/28 01:25:39;;;;;;;26.30;4.00;;;10.10;99.10;;;;;;5045606;28;20517;-73
2021/03/28 01:28:17;;;;;;;31.48;4.60;;;10.10;99.20;;;;;;5048954;28;21274;-74
2021/03/28 01:30:49;;;;;;;28.03;4.40;;;10.20;99.20;;;;;;5030741;28;20424;-74
2021/03/28 01:33:18;;;;;;;29.75;4.20;;;10.10;99.20;;;;;;5048690;28;20515;-72
2021/03/28 01:35:56;;;;;;;27.75;4.50;;;10.10;99.20;;;;;;5047405;28;20506;-74
2021/03/28 01:38:27;;;;;;;25.63;4.45;;;10.10;99.20;;;;;;5048170;28;20514;-74
2021/03/28 01:40:58;;;;;;;27.45;5.18;;;10.10;99.50;;;;;;5044974;28;20440;-71
2021/03/28 01:43:36;;;;;;;26.53;4.57;;;10.10;99.20;;;;;;5045041;28;20433;-73
2021/03/28 01:46:09;;;;;;;31.53;6.30;;;10.10;99.10;;;;;;5047275;28;20783;-73
2021/03/28 01:48:47;;;;;;;27.75;4.50;;;10.10;99.10;;;;;;5048154;28;20424;-75
2021/03/28 01:51:53;;;;;;;22.40;3.70;;;10.10;99.20;;;;;;5045823;28;20425;-75
2021/03/28 01:54:34;;;;;;;26.63;4.15;;;10.00;99.20;;;;;;5026423;28;20464;-76
2021/03/28 01:57:06;;;;;;;23.45;4.07;;;10.00;99.20;;;;;;5047178;28;20487;-75
2021/03/28 01:59:41;;;;;;;23.88;3.63;;;10.00;99.20;;;;;;5047864;28;20429;-73
2021/03/28 02:02:34;;;;;;;22.35;3.78;;;10.00;99.20;;;;;;5046727;28;20431;-74
2021/03/28 02:05:15;;;;;;;23.42;3.67;;;10.00;99.30;;;;;;5048213;28;20891;-73
2021/03/28 02:07:59;;;;;;;24.67;4.47;;;10.00;99.30;;;;;;5027805;28;20524;-75
2021/03/28 02:10:44;;;;;;;24.80;3.90;;;10.00;99.30;;;;;;5046838;28;20525;-75
2021/03/28 02:13:18;;;;;;;32.72;4.20;;;10.00;99.30;;;;;;5046369;28;20440;-75
2021/03/28 02:16:02;;;;;;;22.65;3.75;;;10.00;99.20;;;;;;5024516;28;20513;-75
2021/03/28 02:18:52;;;;;;;24.55;4.05;;;10.00;99.10;;;;;;5044349;28;20518;-75
2021/03/28 02:21:28;;;;;;;25.75;3.78;;;10.00;99.10;;;;;;5047878;28;20463;-75
2021/03/28 02:23:59;;;;;;;22.45;3.90;;;10.00;99.00;;;;;;5046610;28;20437;-73
2021/03/28 02:26:33;;;;;;;25.27;4.20;;;10.00;99.00;;;;;;5048110;28;20421;-76
2021/03/28 02:29:20;;;;;;;21.90;3.50;;;9.90;98.90;;;;;;5044084;28;20436;-74
2021/03/28 02:32:20;;;;;;;24.80;3.50;;;10.00;98.90;;;;;;5046104;28;20922;-73
2021/03/28 02:34:58;;;;;;;20.55;3.42;;;10.00;98.80;;;;;;5045760;28;20432;-74
2021/03/28 02:37:40;;;;;;;25.08;4.00;;;10.00;98.70;;;;;;5045951;28;20902;-74
2021/03/28 02:40:12;;;;;;;20.50;3.47;;;10.00;98.60;;;;;;5030008;28;20437;-75
2021/03/28 02:43:05;;;;;;;21.90;3.75;;;10.00;98.50;;;;;;5042930;28;20429;-72
2021/03/28 02:45:34;;;;;;;22.30;3.50;;;10.00;98.50;;;;;;5045355;28;20489;-75
2021/03/28 02:48:23;;;;;;;19.67;3.72;;;9.90;98.40;;;;;;5046269;28;20770;-75
2021/03/28 02:51:22;;;;;;;18.80;3.70;;;9.90;98.30;;;;;;5045521;28;20743;-74
2021/03/28 02:54:03;;;;;;;21.50;3.35;;;9.90;98.30;;;;;;5045992;28;20421;-73
2021/03/28 02:56:40;;;;;;;21.13;3.75;;;9.90;98.30;;;;;;5042945;28;21185;-74
2021/03/28 02:59:18;;;;;;;21.08;3.42;;;9.90;98.40;;;;;;5045179;28;20764;-73
2021/03/28 03:02:05;;;;;;;24.15;3.90;;;9.90;98.40;;;;;;5042158;28;20806;-73
2021/03/28 03:04:59;;;;;;;20.23;3.30;;;9.90;98.30;;;;;;5046228;28;20892;-73
2021/03/28 03:07:42;;;;;;;16.98;3.70;;;9.90;98.20;;;;;;5044233;28;20512;-73
2021/03/28 03:10:42;;;;;;;16.52;3.20;;;9.90;98.20;;;;;;5047863;28;20413;-74
2021/03/28 03:13:16;;;;;;;19.85;3.80;;;9.90;98.10;;;;;;5044441;28;20516;-75
2021/03/28 03:15:48;;;;;;;17.58;3.45;;;9.90;98.00;;;;;;5046840;28;20431;-72
2021/03/28 03:18:52;;;;;;;19.95;3.30;;;9.90;97.90;;;;;;5027638;28;20712;-75
2021/03/28 03:22:08;;;;;;;22.98;4.05;;;9.90;97.90;;;;;;5045998;28;20433;-75
2021/03/28 03:25:06;;;;;;;17.13;3.35;;;9.90;97.80;;;;;;5044899;28;21150;-73
2021/03/28 03:27:55;;;;;;;18.88;3.22;;;9.90;97.70;;;;;;5044461;28;20431;-74
2021/03/28 03:30:36;;;;;;;19.58;3.50;;;9.90;97.70;;;;;;5033871;28;20433;-73
2021/03/28 03:33:35;;;;;;;19.43;3.20;;;9.90;97.60;;;;;;5045526;28;20433;-74
2021/03/28 03:36:17;;;;;;;17.45;3.20;;;9.90;97.50;;;;;;5031363;28;20444;-74
2021/03/28 03:39:15;;;;;;;20.60;3.50;;;9.90;97.40;;;;;;5044682;28;20444;-75
2021/03/28 03:42:00;;;;;;;14.87;3.17;;;9.90;97.40;;;;;;5045012;28;20429;-74
2021/03/28 03:44:53;;;;;;;16.00;3.20;;;9.90;97.30;;;;;;5043390;28;20433;-72
2021/03/28 03:47:25;;;;;;;19.20;3.60;;;9.90;97.20;;;;;;5043360;28;20720;-74
2021/03/28 03:50:14;;;;;;;20.33;3.40;;;9.90;97.10;;;;;;5046492;28;20421;-75
2021/03/28 03:53:11;;;;;;;13.65;2.80;;;9.90;97.00;;;;;;5043209;28;20517;-74
2021/03/28 03:55:44;;;;;;;16.05;3.00;;;9.90;97.00;;;;;;5044831;28;20433;-75
2021/03/28 03:58:30;;;;;;;18.70;3.05;;;9.90;97.00;;;;;;5027850;28;20437;-74
2021/03/28 04:01:10;;;;;;;18.17;2.83;;;9.90;97.00;;;;;;5044398;28;20906;-72
2021/03/28 04:03:47;;;;;;;17.25;3.05;;;9.90;96.90;;;;;;5043594;28;20425;-75
2021/03/28 04:06:37;;;;;;;13.90;2.50;;;10.00;96.90;;;;;;5044107;28;20430;-75
2021/03/28 04:09:18;;;;;;;18.42;2.95;;;10.00;96.80;;;;;;5044802;28;20531;-73
2021/03/28 04:11:57;;;;;;;16.48;2.75;;;10.00;96.60;;;;;;5044313;28;20435;-73
2021/03/28 04:14:39;;;;;;;19.83;2.90;;;10.00;96.60;;;;;;5043460;28;20451;-74
2021/03/28 04:17:20;;;;;;;15.63;2.83;;;9.90;96.60;;;;;;5045114;28;20428;-74
2021/03/28 04:20:00;;;;;;;16.35;2.97;;;9.90;96.50;;;;;;5026060;28;20428;-73
2021/03/28 04:23:08;;;;;;;15.53;2.57;;;9.90;96.50;;;;;;5044605;28;20468;-74
2021/03/28 04:25:50;;;;;;;15.57;2.83;;;9.90;96.40;;;;;;5042934;28;20472;-73
2021/03/28 04:28:35;;;;;;;14.10;2.40;;;9.90;96.30;;;;;;5043720;28;20901;-75
2021/03/28 04:31:21;;;;;;;18.60;2.70;;;9.90;96.40;;;;;;5027900;28;20796;-74
2021/03/28 04:33:54;;;;;;;16.58;2.45;;;9.90;96.00;;;;;;5039288;28;20433;-73
2021/03/28 04:36:29;;;;;;;14.17;2.53;;;9.90;95.90;;;;;;5044865;28;20440;-74
2021/03/28 04:39:22;;;;;;;16.13;2.65;;;9.90;95.80;;;;;;5043979;28;20421;-72
2021/03/28 04:42:22;;;;;;;18.85;3.05;;;9.90;95.80;;;;;;5001212;28;20987;-72
2021/03/28 04:45:31;;;;;;;16.83;2.92;;;10.00;95.70;;;;;;4976619;28;20490;-78
2021/03/28 04:48:17;;;;;;;15.13;2.78;;;9.90;95.60;;;;;;5018931;28;20445;-73
2021/03/28 04:51:18;;;;;;;14.85;2.78;;;10.00;95.60;;;;;;5026809;28;20441;-73
2021/03/28 04:54:19;;;;;;;16.85;3.63;;;10.00;95.50;;;;;;5043140;28;20433;-74
2021/03/28 04:57:16;;;;;;;15.93;2.90;;;10.00;95.50;;;;;;5043407;28;20431;-73
2021/03/28 05:00:01;;;;;;;16.42;2.60;;;9.90;95.60;;;;;;5005605;28;20432;-75
2021/03/28 05:02:53;;;;;;;11.35;2.50;;;10.00;95.60;;;;;;5043218;28;20433;-75
2021/03/28 05:05:35;;;;;;;15.52;2.67;;;10.00;95.70;;;;;;5036777;28;21503;-75
2021/03/28 05:08:32;;;;;;;16.48;3.00;;;10.00;95.70;;;;;;5042551;28;20437;-74
2021/03/28 05:11:39;;;;;;;16.55;2.72;;;10.00;95.70;;;;;;5041639;28;20434;-75
2021/03/28 05:14:43;;;;;;;15.85;2.90;;;10.00;95.70;;;;;;5041032;28;20445;-72
2021/03/28 05:17:48;;;;;;;15.00;2.70;;;10.00;95.80;;;;;;5014409;28;20428;-75
2021/03/28 05:20:35;;;;;;;20.57;3.03;;;10.00;95.80;;;;;;5041672;28;20445;-75
2021/03/28 05:23:30;;;;;;;14.02;2.85;;;10.10;95.80;;;;;;5029788;28;20444;-74
2021/03/28 05:26:26;;;;;;;15.90;2.80;;;10.10;95.90;;;;;;5048068;28;20427;-73
2021/03/28 05:29:38;;;;;;;15.55;2.67;;;10.10;95.80;;;;;;5046214;28;20428;-73
2021/03/28 05:32:55;;;;;;;19.25;3.03;;;10.10;95.90;;;;;;5027410;28;20921;-75
2021/03/28 05:35:50;;;;;;;15.80;3.00;;;10.10;95.90;;;;;;4978509;28;20443;-75
2021/03/28 05:39:18;;;;;;;14.10;2.90;;;10.20;95.90;;;;;;4973832;28;20448;-74
2021/03/28 05:42:24;;;;;;;19.53;3.57;;;10.20;95.90;;;;;;5029202;28;20437;-72
2021/03/28 05:45:18;;;;;;;15.70;2.80;;;10.20;95.90;;;;;;5047309;28;20441;-77
2021/03/28 05:48:02;;;;;;;18.38;3.05;;;10.30;95.90;;;;;;5029616;28;20428;-72
2021/03/28 05:50:35;;;;;;;16.45;2.70;;;10.30;95.80;;;;;;5045504;28;20424;-74
2021/03/28 05:53:47;;;;;;;15.57;2.90;;;10.30;95.80;;;;;;5030608;28;20975;-74
2021/03/28 05:56:46;;;;;;;14.15;2.92;;;10.40;95.70;;;;;;5046754;28;20433;-75
2021/03/28 05:59:51;;;;;;;14.33;2.70;;;10.40;95.50;;;;;;5043966;28;20437;-73
2021/03/28 06:02:42;;;;;;;15.63;2.80;;;10.40;95.40;;;;;;4970867;28;20443;-74
2021/03/28 06:05:45;;;;;;;20.45;3.20;;;10.50;95.30;;;;;;5044658;28;20425;-74
2021/03/28 06:08:55;;;;;;;16.67;2.75;;;10.50;95.30;;;;;;5047523;28;20432;-75
2021/03/28 06:12:09;;;;;;;12.27;2.55;;;10.40;95.30;;;;;;5046739;28;20433;-73
2021/03/28 06:14:48;;;;;;;15.50;2.50;;;10.50;95.30;;;;;;5047426;28;20926;-75
2021/03/28 06:17:32;;;;;;;13.63;2.70;;;10.50;95.30;;;;;;5042022;28;20433;-75
2021/03/28 06:20:40;;;;;;;15.68;2.80;;;10.50;95.30;;;;;;5042420;28;20436;-75
2021/03/28 06:23:38;;;;;;;11.65;2.67;;;10.50;95.10;;;;;;5044333;28;20582;-74
2021/03/28 06:26:53;;;;;;;15.65;2.90;;;10.60;95.10;;;;;;5037338;28;20414;-75
2021/03/28 06:30:01;;;;;;;13.23;2.78;;;10.60;95.00;;;;;;4973065;28;20438;-74
2021/03/28 06:33:14;;;;;;;18.88;2.90;;;10.70;94.90;;;;;;4981210;28;20505;-72
2021/03/28 06:36:17;;;;;;;14.07;2.70;;;10.70;94.70;;;;;;5048831;28;20425;-74
2021/03/28 06:39:25;;;;;;;16.50;2.80;;;10.70;94.50;;;;;;5049191;28;20424;-73
2021/03/28 06:42:12;;;;;;;14.65;2.80;;;10.80;94.40;;;;;;5025634;28;20439;-74
2021/03/28 06:45:21;;;;;;;15.88;2.80;;;10.80;94.20;;;;;;5048018;28;20483;-73
2021/03/28 06:48:22;;;;;;;17.17;2.63;;;10.80;94.00;;;;;;5047542;28;20479;-75
2021/03/28 06:51:06;;;;;;;19.60;3.33;;;10.90;93.80;;;;;;5048496;28;20449;-75
2021/03/28 06:54:20;;;;;;;12.95;3.00;;;10.90;93.70;;;;;;5048154;28;20421;-75
2021/03/28 06:57:29;;;;;;;13.23;3.10;;;10.90;93.50;;;;;;5048466;28;20520;-75
2021/03/28 07:00:19;;;;;;;16.55;3.00;;;10.90;93.50;;;;;;5045433;28;20808;-74
2021/03/28 07:03:21;;;;;;;12.82;3.28;;;10.90;93.30;;;;;;5043235;28;20487;-74
2021/03/28 07:05:59;;;;;;;16.60;3.40;;;10.90;93.10;;;;;;5016092;28;20425;-74
2021/03/28 07:08:47;;;;;;;16.30;3.20;;;10.90;93.00;;;;;;5027552;28;20502;-73
2021/03/28 07:11:31;;;;;;;14.10;3.00;;;11.00;92.90;;;;;;5042283;28;20490;-74
2021/03/28 07:14:36;;;;;;;13.27;3.25;;;11.00;92.70;;;;;;5030283;28;20433;-75
2021/03/28 07:17:39;;;;;;;13.95;2.90;;;11.10;92.70;;;;;;5046217;28;20936;-71
2021/03/28 07:20:26;;;;;;;14.85;3.35;;;11.10;92.40;;;;;;5025500;28;20429;-76
2021/03/28 07:23:22;;;;;;;15.32;3.13;;;11.20;92.10;;;;;;5025750;28;20437;-75
2021/03/28 07:25:53;;;;;;;15.35;3.10;;;11.20;91.80;;;;;;5009765;28;20436;-77
2021/03/28 07:29:13;;;;;;;11.93;2.70;;;11.30;91.60;;;;;;5044944;28;20901;-76
2021/03/28 07:31:59;;;;;;;13.85;3.10;;;11.40;91.40;;;;;;5046951;28;20448;-77
2021/03/28 07:35:26;;;;;;;13.65;2.97;;;11.40;91.20;;;;;;5045709;28;20439;-75
2021/03/28 07:38:35;;;;;;;12.43;2.80;;;11.40;90.90;;;;;;5027634;28;20418;-76
2021/03/28 07:41:26;;;;;;;15.68;3.08;;;11.50;90.50;;;;;;5047777;28;20889;-74
2021/03/28 07:44:44;;;;;;;11.50;2.63;;;11.50;90.10;;;;;;5011134;28;20437;-74
2021/03/28 07:47:49;;;;;;;13.27;2.72;;;11.60;90.10;;;;;;5027335;28;20480;-74
2021/03/28 07:50:47;;;;;;;14.43;2.80;;;11.70;89.60;;;;;;5043355;28;20710;-76
2021/03/28 07:53:41;;;;;;;12.98;3.10;;;11.70;88.90;;;;;;5043542;28;20421;-75
2021/03/28 07:56:53;;;;;;;12.77;2.95;;;11.80;88.60;;;;;;5040858;28;20432;-74
2021/03/28 07:59:28;;;;;;;17.25;3.50;;;11.80;87.30;;;;;;5041218;28;20429;-73
2021/03/28 08:02:17;;;;;;;12.55;2.83;;;11.80;87.40;;;;;;5031108;28;20436;-75
2021/03/28 08:05:26;;;;;;;13.25;3.00;;;11.90;87.10;;;;;;5026017;28;20894;-77
2021/03/28 08:07:54;;;;;;;13.57;2.97;;;11.90;87.20;;;;;;5039784;28;20415;-74
2021/03/28 08:10:53;;;;;;;16.55;3.22;;;11.90;86.50;;;;;;5047453;28;20424;-72
2021/03/28 08:13:37;;;;;;;15.40;3.00;;;11.90;86.50;;;;;;5045378;28;20512;-72
2021/03/28 08:16:37;;;;;;;15.05;3.00;;;12.00;86.50;;;;;;5048505;28;20431;-73
2021/03/28 08:19:37;;;;;;;12.75;3.08;;;12.00;86.50;;;;;;5026176;28;20438;-75
2021/03/28 08:22:15;;;;;;;13.77;3.15;;;12.00;86.50;;;;;;5042312;28;20826;-74
2021/03/28 08:25:18;;;;;;;11.93;3.00;;;12.00;85.90;;;;;;5042384;28;20801;-72
2021/03/28 08:28:14;;;;;;;13.68;2.97;;;12.10;85.80;;;;;;5047852;28;20432;-71
2021/03/28 08:30:48;;;;;;;17.38;3.53;;;12.00;85.50;;;;;;5043630;28;20953;-71
2021/03/28 08:33:57;;;;;;;14.65;3.28;;;12.00;85.50;;;;;;5041440;28;20512;-74
2021/03/28 08:36:48;;;;;;;16.52;3.15;;;12.00;84.80;;;;;;5041727;28;20484;-73
2021/03/28 08:39:26;;;;;;;15.95;3.03;;;12.00;84.80;;;;;;5029985;28;21024;-74
2021/03/28 08:42:17;;;;;;;13.50;2.92;;;12.00;84.80;;;;;;5044569;28;20475;-78
2021/03/28 08:45:19;;;;;;;19.63;3.43;;;12.00;85.00;;;;;;5028685;28;20417;-75
2021/03/28 08:48:17;;;;;;;13.88;3.40;;;12.10;84.50;;;;;;5041260;28;20898;-74
2021/03/28 08:50:52;;;;;;;21.30;3.15;;;12.10;84.20;;;;;;5044792;28;20531;-75
2021/03/28 08:53:50;;;;;;;21.33;3.15;;;12.10;84.40;;;;;;5025230;28;20448;-73
2021/03/28 08:56:29;;;;;;;18.58;3.40;;;12.00;84.50;;;;;;5019208;28;20490;-75
2021/03/28 08:59:04;;;;;;;16.77;2.90;;;12.00;85.10;;;;;;5033166;28;20762;-75
2021/03/28 09:01:46;;;;;;;21.58;3.13;;;12.00;85.30;;;;;;5051686;28;20434;-74
2021/03/28 09:04:22;;;;;;;17.80;3.33;;;12.00;85.40;;;;;;5051956;28;20427;-74
2021/03/28 09:06:57;;;;;;;22.65;3.13;;;12.00;85.60;;;;;;5050227;28;20409;-75
2021/03/28 09:09:52;;;;;;;20.48;3.38;;;12.00;85.90;;;;;;5050433;28;20454;-77
2021/03/28 09:12:32;;;;;;;24.38;3.80;;;11.90;86.30;;;;;;5032883;28;20766;-78
2021/03/28 09:15:28;;;;;;;28.08;3.63;;;11.90;86.40;;;;;;5041328;28;20417;-76
2021/03/28 09:18:10;;;;;;;24.80;3.30;;;11.80;86.90;;;;;;5039512;28;20447;-75
2021/03/28 09:20:54;;;;;;;25.90;3.55;;;11.80;87.10;;;;;;5033080;28;20433;-74
2021/03/28 09:23:46;;;;;;;20.13;3.38;;;11.80;87.60;;;;;;5049466;28;20425;-75
2021/03/28 09:26:35;;;;;;;22.58;3.13;;;11.80;88.00;;;;;;5044213;28;20554;-74
2021/03/28 09:29:35;;;;;;;25.30;3.88;;;11.80;90.20;;;;;;5031748;28;20475;-75
2021/03/28 09:32:39;;;;;;;22.92;3.20;;;11.70;91.20;;;;;;5045556;28;20448;-74
2021/03/28 09:35:17;;;;;;;21.48;3.58;;;11.60;92.40;;;;;;5051543;28;20420;-75
2021/03/28 09:37:53;;;;;;;24.20;4.18;;;11.40;93.70;;;;;;5046887;28;20516;-75
2021/03/28 09:40:32;;;;;;;26.25;4.35;;;11.20;95.00;;;;;;5051329;28;20428;-74
2021/03/28 09:43:21;;;;;;;21.23;3.90;;;11.10;96.20;;;;;;5045361;28;20432;-74
2021/03/28 09:46:18;;;;;;;27.75;3.85;;;10.90;96.60;;;;;;5030103;28;20425;-74
2021/03/28 09:49:14;;;;;;;24.33;4.00;;;10.80;97.90;;;;;;5049852;28;20451;-74
2021/03/28 09:52:14;;;;;;;29.02;3.90;;;10.60;98.90;;;;;;5048336;28;20417;-75
2021/03/28 09:55:17;;;;;;;22.80;3.85;;;10.50;99.60;;;;;;5041473;28;20826;-74
2021/03/28 09:58:02;;;;;;;29.73;4.57;;;10.40;99.90;;;;;;5049763;28;20439;-74
2021/03/28 10:00:55;;;;;;;23.80;4.07;;;10.30;99.90;;;;;;5028919;28;20440;-73
2021/03/28 10:03:28;;;;;;;24.67;3.60;;;10.20;99.90;;;;;;5031991;28;20429;-74
2021/03/28 10:06:02;;;;;;;22.85;3.85;;;10.10;99.90;;;;;;5048540;28;20452;-76
2021/03/28 10:08:35;;;;;;;30.38;4.53;;;10.20;99.90;;;;;;5045114;28;20436;-75
2021/03/28 10:11:12;;;;;;;31.02;4.47;;;10.10;99.90;;;;;;5029682;28;20431;-75
2021/03/28 10:13:56;;;;;;;26.27;3.70;;;10.20;99.90;;;;;;5046909;28;20437;-74
2021/03/28 10:16:27;;;;;;;29.00;4.17;;;10.20;99.90;;;;;;5038221;28;20440;-75
2021/03/28 10:19:13;;;;;;;25.60;4.13;;;10.20;99.90;;;;;;5047622;28;20424;-74
2021/03/28 10:21:56;;;;;;;26.58;3.85;;;10.30;99.70;;;;;;5039292;28;20909;-75
2021/03/28 10:24:45;;;;;;;27.58;3.97;;;10.40;99.00;;;;;;5024956;28;20486;-75
2021/03/28 10:27:45;;;;;;;25.63;4.28;;;10.40;98.30;;;;;;5049470;28;20401;-75
2021/03/28 10:30:25;;;;;;;27.27;3.90;;;10.50;98.20;;;;;;5044867;28;20789;-75
2021/03/28 10:33:15;;;;;;;26.58;4.15;;;10.60;97.80;;;;;;5046048;28;20421;-74
2021/03/28 10:35:56;;;;;;;22.73;3.67;;;10.70;97.70;;;;;;5046319;28;20432;-74
2021/03/28 10:38:45;;;;;;;25.93;3.80;;;10.70;97.20;;;;;;5044903;28;20472;-74
2021/03/28 10:41:34;;;;;;;22.60;4.00;;;10.80;96.80;;;;;;5049206;28;20416;-73
2021/03/28 10:44:18;;;;;;;26.08;4.25;;;10.90;96.40;;;;;;5039839;28;20446;-76
2021/03/28 10:47:16;;;;;;;27.05;4.25;;;10.90;96.00;;;;;;5045812;28;20425;-75
2021/03/28 10:50:26;;;;;;;23.88;3.88;;;11.00;95.80;;;;;;5045335;28;20420;-75
2021/03/28 10:53:37;;;;;;;28.88;4.18;;;11.00;95.60;;;;;;5047849;28;20853;-74
2021/03/28 10:56:38;;;;;;;25.38;3.90;;;11.10;95.60;;;;;;5049011;28;20440;-75
2021/03/28 10:59:42;;;;;;;28.95;4.00;;;11.10;95.40;;;;;;5003567;28;20433;-76
2021/03/28 11:03:01;;;;;;;26.63;4.00;;;11.20;95.20;;;;;;5045681;28;20521;-75
2021/03/28 11:06:15;;;;;;;30.35;4.22;;;11.20;95.20;;;;;;5040906;28;20425;-75
2021/03/28 11:09:17;;;;;;;23.83;3.78;;;11.20;94.90;;;;;;5045047;28;20924;-74
2021/03/28 11:12:16;;;;;;;21.10;3.78;;;11.30;94.80;;;;;;5043701;28;20451;-76
2021/03/28 11:15:11;;;;;;;27.38;4.60;;;11.30;94.80;;;;;;5029908;28;20427;-75
2021/03/28 11:18:29;;;;;;;28.17;4.22;;;11.30;94.60;;;;;;5045352;28;20435;-73
2021/03/28 11:20:59;;;;;;;24.75;3.75;;;11.40;94.50;;;;;;5029687;28;20428;-75
2021/03/28 11:23:48;;;;;;;22.33;3.90;;;11.40;94.30;;;;;;5045381;28;20482;-77
2021/03/28 11:26:52;;;;;;;30.38;4.13;;;11.40;94.40;;;;;;5041510;28;20433;-74
2021/03/28 11:29:41;;;;;;;23.35;4.45;;;11.40;94.30;;;;;;5042831;28;20773;-73
2021/03/28 11:32:20;;;;;;;28.67;4.13;;;11.50;94.10;;;;;;5025597;28;20495;-74
2021/03/28 11:35:16;;;;;;;22.63;4.22;;;11.50;94.10;;;;;;5042753;28;20439;-75
2021/03/28 11:37:47;;;;;;;28.60;4.28;;;11.50;94.10;;;;;;5044323;28;20432;-77
2021/03/28 11:40:32;;;;;;;31.15;4.18;;;11.50;94.20;;;;;;5043594;28;20482;-76
2021/03/28 11:43:32;;;;;;;26.27;4.10;;;11.50;94.10;;;;;;5043554;28;20898;-75
2021/03/28 11:46:33;;;;;;;26.52;4.15;;;11.50;94.00;;;;;;5045028;28;20436;-75
2021/03/28 11:49:07;;;;;;;26.02;4.60;;;11.60;94.10;;;;;;5014449;28;20431;-76
2021/03/28 11:52:11;;;;;;;24.55;4.60;;;11.50;94.10;;;;;;5040495;28;20438;-75
2021/03/28 11:54:38;;;;;;;27.30;4.43;;;11.60;94.10;;;;;;5042967;28;20432;-75
2021/03/28 11:57:27;;;;;;;22.42;3.85;;;11.70;94.00;;;;;;5042185;28;20523;-74
2021/03/28 11:59:55;;;;;;;23.60;4.27;;;11.70;93.90;;;;;;5043482;28;20429;-74
2021/03/28 12:02:25;;;;;;;26.63;4.35;;;11.70;94.00;;;;;;5039470;28;20976;-75
2021/03/28 12:05:30;;;;;;;24.48;4.20;;;11.70;94.00;;;;;;5040226;28;20483;-77
2021/03/28 12:08:14;;;;;;;24.03;3.90;;;11.70;94.00;;;;;;5046323;28;20428;-75
2021/03/28 12:10:40;;;;;;;27.38;4.10;;;11.80;93.90;;;;;;5047298;28;20413;-76
2021/03/28 12:13:39;;;;;;;24.92;4.50;;;11.80;93.70;;;;;;5045161;28;20417;-74
2021/03/28 12:16:09;;;;;;;27.17;4.18;;;11.90;93.60;;;;;;5029634;28;20444;-75
2021/03/28 12:18:51;;;;;;;27.27;3.88;;;11.90;93.30;;;;;;5043204;28;20904;-75
2021/03/28 12:21:49;;;;;;;30.25;4.70;;;11.90;93.10;;;;;;5047924;28;20409;-75
2021/03/28 12:24:24;;;;;;;27.45;4.15;;;11.90;93.30;;;;;;5029873;28;20487;-74
2021/03/28 12:26:55;;;;;;;32.35;4.38;;;11.90;93.50;;;;;;5044445;28;21154;-74
2021/03/28 12:29:41;;;;;;;26.17;4.40;;;11.80;93.40;;;;;;5028570;28;20437;-76
2021/03/28 12:32:50;;;;;;;27.70;4.55;;;11.80;93.70;;;;;;5047568;28;20421;-74
2021/03/28 12:35:34;;;;;;;32.72;4.45;;;11.80;93.70;;;;;;5046731;28;20878;-74
2021/03/28 12:38:19;;;;;;;31.95;4.63;;;11.70;93.90;;;;;;5045463;28;20428;-74
2021/03/28 12:40:47;;;;;;;29.70;5.47;;;11.70;93.90;;;;;;5022854;28;20432;-72
2021/03/28 12:43:30;;;;;;;31.67;4.55;;;11.70;93.90;;;;;;5029621;28;20424;-75
2021/03/28 12:45:57;;;;;;;30.35;4.57;;;11.70;94.00;;;;;;5028420;28;20421;-73
2021/03/28 12:48:37;;;;;;;30.15;4.57;;;11.70;94.10;;;;;;5047623;28;20424;-76
2021/03/28 12:51:16;;;;;;;32.60;4.80;;;11.70;94.20;;;;;;5030091;28;21171;-75
2021/03/28 12:53:42;;;;;;;29.07;4.17;;;11.70;94.10;;;;;;5044871;28;20415;-74
2021/03/28 12:56:23;;;;;;;28.83;4.53;;;11.70;94.10;;;;;;5040835;28;20787;-77
2021/03/28 12:58:53;;;;;;;30.00;4.53;;;11.60;94.30;;;;;;5047851;28;21047;-75
2021/03/28 13:01:32;;;;;;;27.60;4.63;;;11.60;95.20;;;;;;5045084;28;20845;-74
2021/03/28 13:04:11;;;;;;;28.95;4.63;;;11.50;96.50;;;;;;5046901;28;20797;-77
2021/03/28 13:06:45;;;;;;;27.10;4.63;;;11.40;97.10;;;;;;5045791;28;20413;-77
2021/03/28 13:09:28;;;;;;;31.15;4.53;;;11.30;97.20;;;;;;5048438;28;20456;-75
2021/03/28 13:11:58;;;;;;;28.73;4.78;;;11.30;97.40;;;;;;5046186;28;21934;-77
2021/03/28 13:14:34;;;;;;;23.65;4.20;;;11.20;97.20;;;;;;5047315;28;20417;-76
2021/03/28 13:17:03;;;;;;;35.63;4.47;;;11.20;97.10;;;;;;5046692;28;20424;-77
2021/03/28 13:19:31;;;;;;;26.45;4.40;;;11.30;96.60;;;;;;5049380;28;20912;-74
2021/03/28 13:22:00;;;;;;;30.27;4.63;;;11.30;96.30;;;;;;5047161;28;20773;-75
2021/03/28 13:24:27;;;;;;;27.80;4.10;;;11.40;96.40;;;;;;5031244;28;20557;-77
2021/03/28 13:27:07;;;;;;;28.20;4.60;;;11.50;96.20;;;;;;5043589;28;20424;-76
2021/03/28 13:29:37;;;;;;;29.95;4.18;;;11.50;96.20;;;;;;5041134;28;20889;-76
2021/03/28 13:32:14;;;;;;;28.48;4.25;;;11.60;96.20;;;;;;5028980;28;20774;-76
2021/03/28 13:34:54;;;;;;;26.65;4.20;;;11.70;95.70;;;;;;5044143;28;20413;-74
2021/03/28 13:37:40;;;;;;;30.80;4.03;;;11.80;94.90;;;;;;5043632;28;20432;-75
2021/03/28 13:40:20;;;;;;;26.48;4.10;;;11.90;94.30;;;;;;5046599;28;20474;-75
2021/03/28 13:42:49;;;;;;;27.50;4.50;;;12.10;93.70;;;;;;5045912;28;20979;-74
2021/03/28 13:45:33;;;;;;;27.98;4.00;;;12.20;93.50;;;;;;5033848;28;20432;-74
2021/03/28 13:48:20;;;;;;;23.15;3.88;;;12.30;93.00;;;;;;5050944;28;20424;-75
2021/03/28 13:50:50;;;;;;;26.63;3.63;;;12.30;92.60;;;;;;5049533;28;20786;-79
2021/03/28 13:53:39;;;;;;;25.35;4.13;;;12.30;92.50;;;;;;5051404;28;20413;-73
2021/03/28 13:56:29;;;;;;;26.50;4.40;;;12.20;92.80;;;;;;5047084;28;20457;-74
2021/03/28 13:59:13;;;;;;;28.40;4.30;;;12.20;93.40;;;;;;5035985;28;20445;-74
2021/03/28 14:01:50;;;;;;;28.88;4.15;;;12.10;93.40;;;;;;5045082;28;20431;-77
2021/03/28 14:04:38;;;;;;;30.42;4.53;;;12.10;93.70;;;;;;5048623;28;20950;-77
2021/03/28 14:07:18;;;;;;;29.13;4.40;;;12.00;93.80;;;;;;5049821;28;20417;-77
2021/03/28 14:09:50;;;;;;;26.70;4.30;;;12.00;94.10;;;;;;5030511;28;20433;-75
2021/03/28 14:12:35;;;;;;;26.60;4.00;;;11.90;94.60;;;;;;5051262;28;20421;-77
2021/03/28 14:15:22;;;;;;;26.55;3.97;;;11.80;95.00;;;;;;5045338;28;20425;-77
2021/03/28 14:17:54;;;;;;;27.52;4.40;;;11.70;95.50;;;;;;5044467;28;20498;-74
2021/03/28 14:20:25;;;;;;;28.55;4.85;;;11.70;95.90;;;;;;5044878;28;20421;-74